createdAt,value
2018-02-21T00:01:52.243Z,53.20
2018-02-21T00:04:26.959Z,55.10
2018-02-21T00:07:01.383Z,55.90
2018-02-21T00:09:35.603Z,50.23
2018-02-21T00:12:10.316Z,54.93
2018-02-21T00:14:45.973Z,51.10
2018-02-21T00:17:20.092Z,55.27
2018-02-21T00:19:54.732Z,49.60
2018-02-21T00:22:28.921Z,48.13
2018-02-21T00:25:03.540Z,52.77
2018-02-21T00:27:38.360Z,51.87
2018-02-21T00:30:12.176Z,48.90
2018-02-21T00:32:46.389Z,49.10
2018-02-21T00:35:21.035Z,49.87
2018-02-21T00:37:56.447Z,50.97
2018-02-21T00:40:30.897Z,49.23
2018-02-21T00:43:05.733Z,51.47
2018-02-21T00:45:40.248Z,55.00
2018-02-21T00:48:14.128Z,48.63
2018-02-21T00:50:48.260Z,49.03
2018-02-21T00:53:22.254Z,52.47
2018-02-21T00:55:56.849Z,52.27
2018-02-21T00:58:30.580Z,50.43
2018-02-21T01:01:05.215Z,52.60
2018-02-21T01:03:39.402Z,47.50
2018-02-21T01:06:13.764Z,47.90
2018-02-21T01:08:48.585Z,59.93
2018-02-21T01:11:23.255Z,58.47
2018-02-21T01:13:58.328Z,49.57
2018-02-21T01:16:32.021Z,54.97
2018-02-21T01:19:06.240Z,62.03
2018-02-21T01:21:40.040Z,53.70
2018-02-21T01:24:14.970Z,58.63
2018-02-21T01:26:50.030Z,59.17
2018-02-21T01:29:24.260Z,57.17
2018-02-21T01:31:58.344Z,56.53
2018-02-21T01:34:33.089Z,54.63
2018-02-21T01:37:07.680Z,58.03
2018-02-21T01:39:42.305Z,61.17
2018-02-21T01:42:17.240Z,58.50
2018-02-21T01:44:51.255Z,54.70
2018-02-21T01:47:26.896Z,60.10
2018-02-21T01:50:00.702Z,54.90
2018-02-21T01:52:35.913Z,57.27
2018-02-21T01:55:10.562Z,58.80
2018-02-21T01:57:44.167Z,53.03
2018-02-21T02:00:18.072Z,58.07
2018-02-21T02:02:52.874Z,57.70
2018-02-21T02:05:27.011Z,53.83
2018-02-21T02:08:00.700Z,56.63
2018-02-21T02:10:35.716Z,58.20
2018-02-21T02:13:10.276Z,59.07
2018-02-21T02:15:44.300Z,58.50
2018-02-21T02:18:18.099Z,60.93
2018-02-21T02:20:51.921Z,56.63
2018-02-21T02:23:25.888Z,59.57
2018-02-21T02:26:00.246Z,56.70
2018-02-21T02:28:35.055Z,57.63
2018-02-21T02:31:09.372Z,58.33
2018-02-21T02:33:43.341Z,52.23
2018-02-21T02:36:17.266Z,57.73
2018-02-21T02:39:03.586Z,56.77
2018-02-21T02:41:37.681Z,56.33
2018-02-21T02:44:11.696Z,57.90
2018-02-21T02:46:46.434Z,46.77
2018-02-21T02:49:20.244Z,50.60
2018-02-21T02:51:55.170Z,47.93
2018-02-21T02:54:30.699Z,47.90
2018-02-21T02:57:05.021Z,52.67
2018-02-21T02:59:38.818Z,48.13
2018-02-21T03:02:12.628Z,49.97
2018-02-21T03:04:47.370Z,41.80
2018-02-21T03:07:22.102Z,46.77
2018-02-21T03:09:57.009Z,48.40
2018-02-21T03:12:31.636Z,45.73
2018-02-21T03:15:06.996Z,54.37
2018-02-21T03:17:40.972Z,44.90
2018-02-21T03:20:16.045Z,48.37
2018-02-21T03:22:50.559Z,45.27
2018-02-21T03:25:26.501Z,47.47
2018-02-21T03:28:01.103Z,51.97
2018-02-21T03:30:35.663Z,47.30
2018-02-21T03:33:10.260Z,52.60
2018-02-21T03:35:44.684Z,49.47
2018-02-21T03:38:19.295Z,54.07
2018-02-21T03:40:52.905Z,53.77
2018-02-21T03:43:28.255Z,56.00
2018-02-21T03:46:02.144Z,54.90
2018-02-21T03:48:37.585Z,51.20
2018-02-21T03:51:11.756Z,54.60
2018-02-21T03:53:46.634Z,53.87
2018-02-21T03:56:20.639Z,58.50
2018-02-21T03:58:55.092Z,53.70
2018-02-21T04:01:30.001Z,56.27
2018-02-21T04:04:04.004Z,52.53
2018-02-21T04:06:37.915Z,55.73
2018-02-21T04:09:11.705Z,55.73
2018-02-21T04:11:46.452Z,52.67
2018-02-21T04:14:20.968Z,57.57
2018-02-21T04:16:54.995Z,57.50
2018-02-21T04:19:28.879Z,58.87
2018-02-21T04:22:03.517Z,57.93
2018-02-21T04:24:37.639Z,59.13
2018-02-21T04:27:12.237Z,57.80
2018-02-21T04:29:47.208Z,58.30
2018-02-21T04:32:21.194Z,60.23
2018-02-21T04:34:56.229Z,56.63
2018-02-21T04:37:29.922Z,58.67
2018-02-21T04:40:03.732Z,57.03
2018-02-21T04:42:37.806Z,61.83
2018-02-21T04:45:11.432Z,60.47
2018-02-21T04:47:45.443Z,60.37
2018-02-21T04:50:19.804Z,60.03
2018-02-21T04:52:54.296Z,65.03
2018-02-21T04:55:33.728Z,65.43
2018-02-21T04:58:13.872Z,58.17
2018-02-21T05:00:48.501Z,57.73
2018-02-21T05:03:22.404Z,67.23
2018-02-21T05:05:57.485Z,61.53
2018-02-21T05:08:32.667Z,62.07
2018-02-21T05:11:07.220Z,55.97
2018-02-21T05:13:41.399Z,59.73
2018-02-21T05:16:15.213Z,58.60
2018-02-21T05:18:49.218Z,59.23
2018-02-21T05:21:23.031Z,58.27
2018-02-21T05:23:58.164Z,60.50
2018-02-21T05:26:32.056Z,67.80
2018-02-21T05:29:07.072Z,63.07
2018-02-21T05:31:41.932Z,59.07
2018-02-21T05:34:17.378Z,54.50
2018-02-21T05:36:51.791Z,55.30
2018-02-21T05:39:27.034Z,56.70
2018-02-21T05:42:00.936Z,52.73
2018-02-21T05:44:35.241Z,55.93
2018-02-21T05:47:09.173Z,50.60
2018-02-21T05:49:43.898Z,51.47
2018-02-21T05:52:18.027Z,51.07
2018-02-21T05:54:52.422Z,55.20
2018-02-21T05:57:26.647Z,54.17
2018-02-21T06:00:00.751Z,49.67
2018-02-21T06:02:35.993Z,53.10
2018-02-21T06:05:09.702Z,45.63
2018-02-21T06:07:43.504Z,51.13
2018-02-21T06:10:17.643Z,48.17
2018-02-21T06:12:52.846Z,57.20
2018-02-21T06:15:26.875Z,53.13
2018-02-21T06:18:02.095Z,52.10
2018-02-21T06:20:42.539Z,53.37
2018-02-21T06:23:16.971Z,49.83
2018-02-21T06:25:51.392Z,52.33
2018-02-21T06:28:25.723Z,50.07
2018-02-21T06:31:00.332Z,52.70
2018-02-21T06:33:34.341Z,47.63
2018-02-21T06:36:08.364Z,51.93
2018-02-21T06:38:42.440Z,51.20
2018-02-21T06:41:17.291Z,51.17
2018-02-21T06:43:51.315Z,51.20
2018-02-21T06:46:25.309Z,56.37
2018-02-21T07:02:31.771Z,58.10
2018-02-21T07:05:10.704Z,53.60
2018-02-21T07:07:47.875Z,58.17
2018-02-21T07:10:22.488Z,57.73
2018-02-21T07:12:57.338Z,54.47
2018-02-21T07:15:31.385Z,56.77
2018-02-21T07:18:05.565Z,61.67
2018-02-21T07:20:39.410Z,62.00
2018-02-21T07:23:13.775Z,59.93
2018-02-21T07:25:48.809Z,59.77
2018-02-21T07:28:22.600Z,59.90
2018-02-21T07:30:57.250Z,61.03
2018-02-21T07:33:31.155Z,62.17
2018-02-21T07:36:05.466Z,60.90
2018-02-21T07:38:39.375Z,60.83
2018-02-21T07:41:14.585Z,64.67
2018-02-21T07:43:48.605Z,61.57
2018-02-21T07:46:22.419Z,65.20
2018-02-21T07:48:56.725Z,63.93
2018-02-21T07:51:31.144Z,65.20
2018-02-21T07:54:05.385Z,70.97
2018-02-21T07:56:40.096Z,70.17
2018-02-21T07:59:14.499Z,64.17
2018-02-21T08:01:48.923Z,63.93
2018-02-21T08:04:23.753Z,67.43
2018-02-21T08:06:58.376Z,69.30
2018-02-21T08:09:33.033Z,68.97
2018-02-21T08:12:07.136Z,71.67
2018-02-21T08:14:41.831Z,69.57
2018-02-21T08:17:16.870Z,68.40
2018-02-21T08:19:50.678Z,74.07
2018-02-21T08:22:26.032Z,73.47
2018-02-21T08:25:00.540Z,77.47
2018-02-21T08:27:35.569Z,71.97
2018-02-21T08:30:10.403Z,68.60
2018-02-21T08:32:44.642Z,68.37
2018-02-21T08:35:18.340Z,70.80
2018-02-21T08:37:53.355Z,71.93
2018-02-21T08:40:27.458Z,78.20
2018-02-21T08:43:01.873Z,70.27
2018-02-21T08:45:36.718Z,72.60
2018-02-21T08:48:10.627Z,69.93
2018-02-21T08:50:45.031Z,69.13
2018-02-21T08:53:19.052Z,72.20
2018-02-21T08:55:52.663Z,74.60
2018-02-21T08:58:26.862Z,73.53
2018-02-21T09:01:00.693Z,75.10
2018-02-21T09:03:35.596Z,68.30
2018-02-21T09:06:09.911Z,72.20
2018-02-21T09:08:44.536Z,79.20
2018-02-21T09:11:18.239Z,74.70
2018-02-21T09:13:52.027Z,73.47
2018-02-21T09:16:27.099Z,67.90
2018-02-21T09:19:00.986Z,70.37
2018-02-21T09:21:35.538Z,74.50
2018-02-21T09:24:10.126Z,69.57
2018-02-21T09:26:44.877Z,71.93
2018-02-21T09:29:19.380Z,74.50
2018-02-21T09:31:53.203Z,74.23
2018-02-21T09:34:27.907Z,78.83
2018-02-21T09:37:01.569Z,78.03
2018-02-21T09:39:37.054Z,72.03
2018-02-21T09:42:11.060Z,75.03
2018-02-21T09:44:45.911Z,78.63
2018-02-21T09:47:20.009Z,71.27
2018-02-21T09:49:53.893Z,72.93
2018-02-21T09:52:28.517Z,71.73
2018-02-21T09:55:03.878Z,67.87
2018-02-21T09:57:38.695Z,71.83
2018-02-21T10:00:12.317Z,69.07
2018-02-21T10:02:47.447Z,66.67
2018-02-21T10:05:21.960Z,70.33
2018-02-21T10:07:57.501Z,71.63
2018-02-21T10:10:32.140Z,71.10
2018-02-21T10:13:06.263Z,67.57
2018-02-21T10:15:40.879Z,68.07
2018-02-21T10:18:16.216Z,71.93
2018-02-21T10:20:50.145Z,68.33
2018-02-21T10:23:24.964Z,72.37
2018-02-21T10:25:59.867Z,68.37
2018-02-21T10:28:34.924Z,65.87
2018-02-21T10:31:09.665Z,68.80
2018-02-21T10:33:43.347Z,68.43
2018-02-21T10:36:17.954Z,68.50
2018-02-21T10:38:52.762Z,67.10
2018-02-21T10:41:28.121Z,61.37
2018-02-21T10:44:02.529Z,64.83
2018-02-21T10:46:37.815Z,65.10
2018-02-21T10:49:11.585Z,69.43
2018-02-21T10:51:46.220Z,67.23
2018-02-21T10:54:19.913Z,67.33
2018-02-21T10:56:53.726Z,62.33
2018-02-21T10:59:28.257Z,64.93
2018-02-21T11:02:02.027Z,63.90
2018-02-21T11:04:36.460Z,66.57
2018-02-21T11:07:11.090Z,63.87
2018-02-21T11:09:44.889Z,60.93
2018-02-21T11:12:19.443Z,60.90
2018-02-21T11:14:53.304Z,65.33
2018-02-21T11:17:27.944Z,66.13
2018-02-21T11:20:01.748Z,67.03
2018-02-21T11:22:36.476Z,70.47
2018-02-21T11:25:10.876Z,61.27
2018-02-21T11:27:45.431Z,64.63
2018-02-21T11:30:19.131Z,66.37
2018-02-21T11:32:53.636Z,63.30
2018-02-21T11:35:28.369Z,66.63
2018-02-21T11:38:02.980Z,65.60
2018-02-21T11:40:37.816Z,63.23
2018-02-21T11:43:11.920Z,68.10
2018-02-21T11:45:45.850Z,67.57
2018-02-21T11:48:19.632Z,54.47
2018-02-21T11:50:54.401Z,69.17
2018-02-21T11:53:28.980Z,63.17
2018-02-21T11:56:03.399Z,59.53
2018-02-21T11:58:38.051Z,61.30
2018-02-21T12:01:12.033Z,59.40
2018-02-21T12:03:46.215Z,63.83
2018-02-21T12:06:19.948Z,63.43
2018-02-21T12:08:53.577Z,60.77
2018-02-21T12:11:27.774Z,60.90
2018-02-21T12:14:01.775Z,56.70
2018-02-21T12:16:37.638Z,59.20
2018-02-21T12:19:12.255Z,53.00
2018-02-21T12:21:47.912Z,53.77
2018-02-21T12:24:21.511Z,59.77
2018-02-21T12:26:55.615Z,60.73
2018-02-21T12:29:31.076Z,58.00
2018-02-21T12:32:09.057Z,62.30
2018-02-21T12:34:43.392Z,57.27
2018-02-21T12:37:18.923Z,57.20
2018-02-21T12:39:52.721Z,56.37
2018-02-21T12:42:27.552Z,56.97
2018-02-21T12:45:01.891Z,56.00
2018-02-21T12:47:36.910Z,49.00
2018-02-21T12:50:12.119Z,51.23
2018-02-21T12:52:47.997Z,54.67
2018-02-21T12:55:21.812Z,52.17
2018-02-21T12:57:56.119Z,54.47
2018-02-21T13:00:29.911Z,50.20
2018-02-21T13:03:07.530Z,53.20
2018-02-21T13:05:42.438Z,52.33
2018-02-21T13:08:17.359Z,50.03
2018-02-21T13:10:52.160Z,53.90
2018-02-21T13:13:26.746Z,54.03
2018-02-21T13:16:00.826Z,49.57
2018-02-21T13:18:36.382Z,51.90
2018-02-21T13:21:11.354Z,52.33
2018-02-21T13:23:45.633Z,52.43
2018-02-21T13:26:19.919Z,54.77
2018-02-21T13:28:55.560Z,54.97
2018-02-21T13:31:30.336Z,57.63
2018-02-21T13:34:05.829Z,54.93
2018-02-21T13:36:40.068Z,52.23
2018-02-21T13:39:15.651Z,52.97
2018-02-21T13:41:50.122Z,55.70
2018-02-21T13:44:24.258Z,59.63
2018-02-21T13:46:58.975Z,62.90
2018-02-21T13:49:32.671Z,53.53
2018-02-21T13:52:08.435Z,63.17
2018-02-21T13:54:42.232Z,47.00
2018-02-21T13:57:17.759Z,49.33
2018-02-21T13:59:51.432Z,54.17
2018-02-21T14:02:26.514Z,57.87
2018-02-21T14:05:01.040Z,54.93
2018-02-21T14:07:35.224Z,54.93
2018-02-21T14:10:10.495Z,53.17
2018-02-21T14:12:45.120Z,51.73
2018-02-21T14:15:20.240Z,52.80
2018-02-21T14:17:55.369Z,53.10
2018-02-21T14:20:29.304Z,51.07
2018-02-21T14:23:03.000Z,47.23
2018-02-21T14:25:37.520Z,49.47
2018-02-21T14:28:11.742Z,50.73
2018-02-21T14:30:46.254Z,48.10
2018-02-21T14:46:28.101Z,47.90
2018-02-21T14:49:02.544Z,47.00
2018-02-21T14:51:36.622Z,51.83
2018-02-21T14:54:11.077Z,48.20
2018-02-21T14:56:46.317Z,47.37
2018-02-21T14:59:20.097Z,48.73
2018-02-21T15:01:55.050Z,50.23
2018-02-21T15:04:30.795Z,49.10
2018-02-21T15:07:05.013Z,46.83
2018-02-21T15:09:39.028Z,42.33
2018-02-21T15:12:12.711Z,47.47
2018-02-21T15:14:47.448Z,48.50
2018-02-21T15:17:21.266Z,46.83
2018-02-21T15:19:55.598Z,47.50
2018-02-21T15:22:30.608Z,44.17
2018-02-21T15:25:05.515Z,47.50
2018-02-21T15:27:39.558Z,53.00
2018-02-21T15:30:14.206Z,47.50
2018-02-21T15:32:48.692Z,50.73
2018-02-21T15:35:23.398Z,49.90
2018-02-21T15:37:57.200Z,49.77
2018-02-21T15:40:32.688Z,51.57
2018-02-21T15:43:06.754Z,47.63
2018-02-21T15:45:41.844Z,47.03
2018-02-21T15:48:17.130Z,44.03
2018-02-21T16:03:59.006Z,45.17
2018-02-21T16:06:32.624Z,46.50
2018-02-21T16:09:07.327Z,42.47
2018-02-21T16:11:42.773Z,48.00
2018-02-21T16:14:18.717Z,46.03
2018-02-21T16:16:52.427Z,48.97
2018-02-21T16:19:28.284Z,55.53
2018-02-21T16:22:03.008Z,54.83
2018-02-21T16:24:37.231Z,55.87
2018-02-21T16:27:11.129Z,54.13
2018-02-21T16:29:46.392Z,55.47
2018-02-21T16:32:20.429Z,54.80
2018-02-21T16:34:54.788Z,57.00
2018-02-21T16:37:29.512Z,53.77
2018-02-21T16:40:04.064Z,56.73
2018-02-21T16:42:39.079Z,54.73
2018-02-21T16:45:12.784Z,57.13
2018-02-21T16:47:47.183Z,55.93
2018-02-21T16:50:20.891Z,53.37
2018-02-21T16:52:56.051Z,59.73
2018-02-21T16:55:29.959Z,59.83
2018-02-21T16:58:04.050Z,61.80
2018-02-21T17:00:38.956Z,52.30
2018-02-21T17:03:12.905Z,53.93
2018-02-21T17:05:48.129Z,56.27
2018-02-21T17:08:22.136Z,55.73
2018-02-21T17:10:56.976Z,57.63
2018-02-21T17:13:31.591Z,56.47
2018-02-21T17:16:08.485Z,53.10
2018-02-21T17:18:42.267Z,54.33
2018-02-21T17:21:18.340Z,54.43
2018-02-21T17:23:54.486Z,54.23
2018-02-21T17:26:29.208Z,50.50
2018-02-21T17:29:04.432Z,53.87
2018-02-21T17:31:38.871Z,61.60
2018-02-21T17:34:12.896Z,53.97
2018-02-21T17:36:47.919Z,55.10
2018-02-21T17:39:23.067Z,56.17
2018-02-21T17:42:00.531Z,52.00
2018-02-21T17:44:34.351Z,60.13
2018-02-21T17:47:11.661Z,50.83
2018-02-21T17:49:46.282Z,57.63
2018-02-21T17:52:20.073Z,61.97
2018-02-21T17:54:53.875Z,57.40
2018-02-21T17:57:29.039Z,52.87
2018-02-21T18:00:03.049Z,60.53
2018-02-21T18:02:37.652Z,57.77
2018-02-21T18:05:11.571Z,57.07
2018-02-21T18:07:46.428Z,52.33
2018-02-21T18:10:20.203Z,55.70
2018-02-21T18:12:53.973Z,52.47
2018-02-21T18:15:28.719Z,57.33
2018-02-21T18:18:02.643Z,52.30
2018-02-21T18:20:37.263Z,54.07
2018-02-21T18:23:11.559Z,59.37
2018-02-21T18:25:47.615Z,53.10
2018-02-21T18:28:21.316Z,56.67
2018-02-21T18:30:57.083Z,52.20
2018-02-21T18:33:31.288Z,54.13
2018-02-21T18:36:07.146Z,49.60
2018-02-21T18:38:41.586Z,57.07
2018-02-21T18:41:15.675Z,52.87
2018-02-21T18:43:50.158Z,54.17
2018-02-21T18:46:24.922Z,52.47
2018-02-21T18:48:59.119Z,55.57
2018-02-21T18:51:33.052Z,49.43
2018-02-21T18:54:11.745Z,51.03
2018-02-21T18:56:50.379Z,51.30
2018-02-21T18:59:26.906Z,47.90
2018-02-21T19:02:01.260Z,51.97
2018-02-21T19:04:35.688Z,49.47
2018-02-21T19:07:09.407Z,53.57
2018-02-21T19:09:45.327Z,52.90
2018-02-21T19:12:19.862Z,54.57
2018-02-21T19:14:55.500Z,49.73
2018-02-21T19:17:30.136Z,51.60
2018-02-21T19:20:04.466Z,49.70
2018-02-21T19:22:38.649Z,53.07
2018-02-21T19:25:12.448Z,51.33
2018-02-21T19:27:46.486Z,51.73
2018-02-21T19:30:21.418Z,49.67
2018-02-21T19:32:57.244Z,50.80
2018-02-21T19:35:31.072Z,52.50
2018-02-21T19:38:05.193Z,47.73
2018-02-21T19:40:39.391Z,52.33
2018-02-21T19:43:14.111Z,48.23
2018-02-21T19:45:48.996Z,49.27
2018-02-21T19:48:23.564Z,43.90
2018-02-21T19:50:58.370Z,46.63
2018-02-21T19:53:32.446Z,45.47
2018-02-21T19:56:09.274Z,44.07
2018-02-21T19:58:44.117Z,45.60
2018-02-21T20:01:18.623Z,46.33
2018-02-21T20:03:53.353Z,45.03
2018-02-21T20:06:28.796Z,50.37
2018-02-21T20:09:02.807Z,43.60
2018-02-21T20:11:37.941Z,46.23
2018-02-21T20:14:12.757Z,47.50
2018-02-21T20:16:48.320Z,42.70
2018-02-21T20:19:22.091Z,41.37
2018-02-21T20:21:58.795Z,48.70
2018-02-21T20:24:32.588Z,44.33
2018-02-21T20:27:06.995Z,45.83
2018-02-21T20:29:41.333Z,45.97
2018-02-21T20:32:16.976Z,44.53
2018-02-21T20:34:51.195Z,44.73
2018-02-21T20:37:25.223Z,48.00
2018-02-21T20:39:59.940Z,43.17
2018-02-21T20:42:33.943Z,43.13
2018-02-21T20:45:11.906Z,43.00
2018-02-21T20:47:46.453Z,45.00
2018-02-21T20:50:20.996Z,45.57
2018-02-21T20:52:58.055Z,43.13
2018-02-21T20:55:32.492Z,44.97
2018-02-21T20:58:09.139Z,53.03
2018-02-21T21:00:42.859Z,46.47
2018-02-21T21:03:19.299Z,47.63
2018-02-21T21:05:53.867Z,46.33
2018-02-21T21:08:28.387Z,46.70
2018-02-21T21:11:02.270Z,45.37
2018-02-21T21:13:39.051Z,47.63
2018-02-21T21:16:13.946Z,45.73
2018-02-21T21:18:48.674Z,51.13
2018-02-21T21:21:22.666Z,50.90
2018-02-21T21:23:57.201Z,53.30
2018-02-21T21:26:31.906Z,48.57
2018-02-21T21:29:06.657Z,55.70
2018-02-21T21:31:43.370Z,51.80
2018-02-21T21:34:18.629Z,50.20
2018-02-21T21:36:52.772Z,52.83
2018-02-21T21:39:26.740Z,52.43
2018-02-21T21:42:01.980Z,47.53
2018-02-21T21:44:37.785Z,53.53
2018-02-21T21:47:12.536Z,55.33
2018-02-21T21:49:47.519Z,53.53
2018-02-21T21:52:21.372Z,53.03
2018-02-21T21:54:55.984Z,52.53
2018-02-21T21:57:29.924Z,53.20
2018-02-21T22:00:04.904Z,53.33
2018-02-21T22:02:39.684Z,50.80
2018-02-21T22:05:13.457Z,54.10
2018-02-21T22:07:47.652Z,48.13
2018-02-21T22:10:21.887Z,55.60
2018-02-21T22:12:55.962Z,54.37
2018-02-21T22:15:30.451Z,50.07
2018-02-21T22:18:04.505Z,51.80
2018-02-21T22:20:39.376Z,52.30
2018-02-21T22:23:14.108Z,53.30
2018-02-21T22:25:48.524Z,50.73
2018-02-21T22:28:23.170Z,50.57
2018-02-21T22:30:58.273Z,55.07
2018-02-21T22:33:32.087Z,47.70
2018-02-21T22:36:06.612Z,56.93
2018-02-21T22:38:41.350Z,53.57
2018-02-21T22:41:15.868Z,50.97
2018-02-21T22:43:50.256Z,51.83
2018-02-21T22:46:24.964Z,54.30
2018-02-21T22:48:59.795Z,54.27
2018-02-21T22:51:34.552Z,55.90
2018-02-21T22:54:08.891Z,52.43
2018-02-21T22:56:43.511Z,49.37
2018-02-21T22:59:17.488Z,52.77
2018-02-21T23:01:52.317Z,46.87
2018-02-21T23:04:26.198Z,57.40
2018-02-21T23:07:01.770Z,48.27
2018-02-21T23:09:35.869Z,50.47
2018-02-21T23:12:09.660Z,48.47
2018-02-21T23:14:44.437Z,50.97
2018-02-21T23:17:18.247Z,52.47
2018-02-21T23:19:52.759Z,47.53
2018-02-21T23:22:27.368Z,41.33
2018-02-21T23:25:01.888Z,47.83
2018-02-21T23:27:36.469Z,46.33
2018-02-21T23:30:11.948Z,48.30
2018-02-21T23:32:45.856Z,44.53
2018-02-21T23:35:19.947Z,47.23
2018-02-21T23:37:54.905Z,50.50
2018-02-21T23:40:29.131Z,45.73
2018-02-21T23:43:02.949Z,46.57
2018-02-21T23:45:37.080Z,46.17
2018-02-21T23:48:11.197Z,43.83
2018-02-21T23:50:46.175Z,44.83
2018-02-21T23:53:20.187Z,44.73
2018-02-21T23:55:54.790Z,41.50
2018-02-21T23:58:29.627Z,43.07
